Time;durP1;ratioP1;P1;durP2;ratioP2;P2;SDS_P1;SDS_P2;PMS_P1;PMS_P2;Temp;Humidity;BMP_temperature;BMP_pressure;BME280_temperature;BME280_humidity;BME280_pressure;Samples;Min_cycle;Max_cycle;Signal;HPM_P1;HPM_P2
2021/10/11 00:00:04;;;;;;;21.05;9.90;;;;;;;11.31;63.34;100981.59;4991987;28;20030;-63
2021/10/11 00:02:30;;;;;;;18.15;9.50;;;;;;;11.33;63.98;100990.41;4992040;28;20361;-64
2021/10/11 00:04:55;;;;;;;18.92;9.60;;;;;;;11.26;63.10;100978.44;4991189;28;20026;-65
2021/10/11 00:07:21;;;;;;;22.15;9.35;;;;;;;11.26;64.02;100975.78;5006636;28;20026;-65
2021/10/11 00:09:46;;;;;;;14.85;9.15;;;;;;;11.31;63.84;100990.53;4991982;28;20347;-63
2021/10/11 00:12:12;;;;;;;15.82;9.32;;;;;;;11.30;64.31;100990.66;4991592;28;20042;-63
2021/10/11 00:14:37;;;;;;;18.90;9.93;;;;;;;11.26;64.90;100981.97;4991097;28;20473;-63
2021/10/11 00:17:03;;;;;;;16.92;8.85;;;;;;;11.26;66.20;100986.50;4991294;28;20439;-63
2021/10/11 00:19:33;;;;;;;15.77;9.48;;;;;;;11.25;65.97;100979.41;4990758;28;20026;-63
2021/10/11 00:21:59;;;;;;;14.73;8.70;;;;;;;11.20;66.54;100974.44;4990876;28;20033;-64
2021/10/11 00:24:25;;;;;;;19.90;9.30;;;;;;;11.20;66.19;100974.44;4990948;28;20109;-63
2021/10/11 00:26:50;;;;;;;17.20;9.18;;;;;;;11.17;65.96;100972.00;4990694;28;20038;-63
2021/10/11 00:29:16;;;;;;;20.08;9.23;;;;;;;11.18;66.18;100979.06;4991076;28;20491;-63
2021/10/11 00:31:41;;;;;;;16.27;9.52;;;;;;;11.14;66.99;100974.06;4990771;28;20033;-63
2021/10/11 00:34:06;;;;;;;19.35;8.95;;;;;;;11.10;67.12;100968.06;5005682;28;20038;-64
2021/10/11 00:36:32;;;;;;;21.35;9.98;;;;;;;11.16;66.82;100972.94;4991167;28;20029;-64
2021/10/11 00:38:57;;;;;;;16.08;9.00;;;;;;;11.17;66.71;100965.75;4990965;28;20099;-64
2021/10/11 00:41:27;;;;;;;18.70;9.30;;;;;;;11.15;66.72;100963.19;5000504;28;20044;-63
2021/10/11 00:43:53;;;;;;;14.90;8.75;;;;;;;11.15;66.71;100963.19;4988273;28;20026;-63
2021/10/11 00:46:19;;;;;;;15.60;8.98;;;;;;;11.09;66.07;100954.75;4990574;28;20019;-63
2021/10/11 00:48:44;;;;;;;18.02;9.25;;;;;;;11.16;65.96;100962.22;5008936;28;20037;-62
2021/10/11 00:51:10;;;;;;;17.85;9.45;;;;;;;11.09;65.97;100954.75;5010038;28;20065;-63
2021/10/11 00:53:35;;;;;;;17.90;9.27;;;;;;;11.09;66.42;100952.94;5010041;28;20029;-62
2021/10/11 00:56:01;;;;;;;17.05;9.60;;;;;;;11.05;67.79;100946.13;5009851;28;20025;-62
2021/10/11 00:58:26;;;;;;;14.88;8.77;;;;;;;11.12;68.54;100954.50;5009943;28;20034;-62
2021/10/11 01:00:52;;;;;;;16.35;9.70;;;;;;;11.10;68.98;100948.44;5009694;28;20436;-62
2021/10/11 01:03:18;;;;;;;16.75;9.77;;;;;;;11.11;71.42;100948.31;5009701;28;20030;-61
2021/10/11 01:05:43;;;;;;;21.10;10.00;;;;;;;11.11;73.55;100955.50;5008481;28;20141;-62
2021/10/11 01:08:09;;;;;;;16.83;9.73;;;;;;;11.00;73.23;100934.03;5009647;28;20030;-61
2021/10/11 01:10:34;;;;;;;16.08;10.50;;;;;;;11.03;74.53;100940.00;5009697;28;20022;-62
2021/10/11 01:13:00;;;;;;;20.02;10.52;;;;;;;10.99;74.87;100937.69;5009491;28;20060;-62
2021/10/11 01:15:25;;;;;;;18.08;10.50;;;;;;;10.96;76.28;100936.09;5009692;28;20072;-62
2021/10/11 01:17:51;;;;;;;17.27;9.63;;;;;;;10.89;77.90;100929.53;5009310;28;20021;-62
2021/10/11 01:20:17;;;;;;;18.33;10.75;;;;;;;10.88;78.12;100929.66;5008858;28;20553;-62
2021/10/11 01:22:44;;;;;;;16.95;10.57;;;;;;;10.85;78.53;100928.06;5009617;28;20028;-62
2021/10/11 01:25:12;;;;;;;17.50;9.68;;;;;;;10.83;78.89;100924.63;5009343;28;20454;-62
2021/10/11 01:27:38;;;;;;;18.05;9.93;;;;;;;10.77;78.31;100910.88;5001474;28;20079;-63
2021/10/11 01:30:06;;;;;;;20.92;11.15;;;;;;;10.76;77.09;100904.63;5009224;28;20029;-61
2021/10/11 01:32:31;;;;;;;16.63;9.20;;;;;;;10.79;76.54;100925.00;5007818;28;20030;-62
2021/10/11 01:34:57;;;;;;;19.05;9.75;;;;;;;10.72;76.90;100910.38;5009353;28;20387;-62
2021/10/11 01:37:23;;;;;;;17.40;10.30;;;;;;;10.79;76.90;100922.31;5009109;28;20083;-62
2021/10/11 01:39:48;;;;;;;17.55;9.45;;;;;;;10.73;75.57;100912.94;5009303;28;20168;-63
2021/10/11 01:42:14;;;;;;;19.33;9.68;;;;;;;10.78;74.89;100908.06;4992046;28;20539;-64
2021/10/11 01:44:40;;;;;;;16.60;9.65;;;;;;;10.74;74.36;100903.06;4989416;28;20113;-64
2021/10/11 01:47:05;;;;;;;16.80;9.45;;;;;;;10.75;74.52;100904.75;4989296;28;20096;-62
2021/10/11 01:49:31;;;;;;;15.80;9.35;;;;;;;10.76;73.53;100898.41;4989785;28;20030;-62
2021/10/11 01:51:56;;;;;;;18.90;9.43;;;;;;;10.76;74.02;100899.28;4989455;28;20034;-62
2021/10/11 01:54:22;;;;;;;20.20;10.30;;;;;;;10.74;73.69;100893.16;4989528;28;20029;-63
2021/10/11 01:56:47;;;;;;;19.85;10.60;;;;;;;10.75;74.44;100897.56;4989351;28;20033;-63
2021/10/11 01:59:12;;;;;;;16.45;9.52;;;;;;;10.67;74.39;100883.91;5004148;28;20044;-62
2021/10/11 02:01:38;;;;;;;21.75;9.93;;;;;;;10.69;76.00;100881.97;4987729;28;20404;-63
2021/10/11 02:04:04;;;;;;;18.05;9.57;;;;;;;10.72;74.94;100887.09;4989243;28;20044;-61
2021/10/11 02:06:29;;;;;;;21.48;10.25;;;;;;;10.67;73.18;100878.53;4989228;28;20112;-61
2021/10/11 02:08:55;;;;;;;15.93;9.20;;;;;;;10.70;73.99;100885.47;4995197;28;20037;-61
2021/10/11 02:11:20;;;;;;;16.38;9.80;;;;;;;10.66;75.86;100878.66;5009011;28;20022;-61
2021/10/11 02:13:45;;;;;;;18.25;10.35;;;;;;;10.69;78.29;100881.09;5008630;28;20021;-62
2021/10/11 02:16:11;;;;;;;20.25;10.70;;;;;;;10.70;81.61;100883.66;5008474;28;20057;-61
2021/10/11 02:18:36;;;;;;;17.55;10.20;;;;;;;10.66;82.53;100876.84;5008675;28;20040;-61
2021/10/11 02:21:02;;;;;;;18.30;10.23;;;;;;;10.68;85.35;100882.91;5008767;28;20026;-61
2021/10/11 02:23:28;;;;;;;18.15;11.07;;;;;;;10.66;83.85;100879.53;5008581;28;20048;-63
2021/10/11 02:25:53;;;;;;;18.80;10.88;;;;;;;10.62;84.34;100880.75;5004951;28;20026;-63
2021/10/11 02:28:19;;;;;;;20.95;11.07;;;;;;;10.64;86.17;100883.31;4989283;28;20125;-63
2021/10/11 02:30:45;;;;;;;17.33;10.40;;;;;;;10.53;86.77;100870.72;4988849;28;20077;-63
2021/10/11 02:33:10;;;;;;;15.73;10.38;;;;;;;10.62;87.07;100890.59;4992375;28;20039;-61
2021/10/11 02:35:36;;;;;;;16.25;10.32;;;;;;;10.63;88.64;100882.44;4993271;28;20041;-62
2021/10/11 02:38:02;;;;;;;19.15;10.45;;;;;;;10.62;88.78;100878.06;4993009;28;20028;-63
2021/10/11 02:40:27;;;;;;;18.55;11.02;;;;;;;10.62;89.07;100879.88;4993063;28;20034;-62
2021/10/11 02:42:53;;;;;;;18.52;11.00;;;;;;;10.60;89.50;100877.31;4993506;28;20025;-63
2021/10/11 02:45:18;;;;;;;20.00;11.10;;;;;;;10.56;90.04;100864.25;5001588;28;20108;-63
2021/10/11 02:47:44;;;;;;;18.95;10.68;;;;;;;10.60;89.36;100876.44;5012499;28;20024;-62
2021/10/11 02:50:09;;;;;;;16.00;9.88;;;;;;;10.56;88.94;100867.81;5012601;28;20102;-63
2021/10/11 02:52:35;;;;;;;19.90;9.40;;;;;;;10.54;89.86;100869.75;5012403;28;20373;-63
2021/10/11 02:55:03;;;;;;;20.27;11.43;;;;;;;10.58;89.38;100870.38;5012428;28;20045;-64
2021/10/11 02:57:29;;;;;;;17.33;10.25;;;;;;;10.58;89.74;100868.53;5012163;28;20025;-63
2021/10/11 02:59:54;;;;;;;18.77;11.23;;;;;;;10.59;90.95;100864.88;5012226;28;20056;-63
2021/10/11 03:02:20;;;;;;;16.23;9.90;;;;;;;10.62;91.47;100877.19;5012191;28;20081;-62
2021/10/11 03:04:46;;;;;;;17.65;10.52;;;;;;;10.60;91.21;100869.28;5012434;28;20461;-62
2021/10/11 03:07:11;;;;;;;21.30;11.05;;;;;;;10.59;89.26;100864.03;5012033;28;20034;-63
2021/10/11 03:09:36;;;;;;;15.68;9.50;;;;;;;10.59;87.72;100859.53;5010802;28;20022;-64
2021/10/11 03:12:02;;;;;;;20.38;10.15;;;;;;;10.56;86.35;100854.41;5011942;28;20408;-63
2021/10/11 03:14:28;;;;;;;18.25;10.50;;;;;;;10.54;86.54;100850.09;5012008;28;20497;-63
2021/10/11 03:16:54;;;;;;;16.38;10.55;;;;;;;10.53;85.96;100846.59;5012459;28;20026;-63
2021/10/11 03:19:19;;;;;;;16.13;10.25;;;;;;;10.54;84.64;100852.78;5014290;28;20021;-62
2021/10/11 03:21:45;;;;;;;18.17;9.82;;;;;;;10.51;84.67;100840.50;5014529;28;20040;-62
2021/10/11 03:24:10;;;;;;;24.40;10.85;;;;;;;10.50;85.00;100838.78;5011873;28;20032;-63
2021/10/11 03:26:35;;;;;;;21.38;11.73;;;;;;;10.51;84.55;100839.66;5002973;28;20046;-63
2021/10/11 03:29:01;;;;;;;22.52;11.95;;;;;;;10.46;84.83;100837.34;4991867;28;20062;-63
2021/10/11 03:31:26;;;;;;;20.90;10.85;;;;;;;10.44;86.55;100833.03;4992393;28;20497;-63
2021/10/11 03:33:52;;;;;;;18.55;11.23;;;;;;;10.50;87.45;100840.59;4992447;28;20481;-64
2021/10/11 03:36:17;;;;;;;19.48;11.55;;;;;;;10.46;88.63;100837.34;4991965;28;20373;-64
2021/10/11 03:38:42;;;;;;;19.95;11.68;;;;;;;10.54;89.39;100840.25;4992262;28;20448;-64
2021/10/11 03:41:08;;;;;;;22.02;11.05;;;;;;;10.54;89.73;100836.69;4991889;28;20030;-63
2021/10/11 03:43:33;;;;;;;19.67;10.45;;;;;;;10.52;88.10;100839.53;4996254;28;20030;-64
2021/10/11 03:45:59;;;;;;;21.17;10.95;;;;;;;10.54;87.93;100832.19;5011275;28;20030;-63
2021/10/11 03:48:24;;;;;;;20.50;11.30;;;;;;;10.52;88.03;100836.00;4996031;28;20028;-63
2021/10/11 03:50:50;;;;;;;19.88;10.65;;;;;;;10.53;88.22;100833.19;5010983;28;20044;-64
2021/10/11 03:53:16;;;;;;;23.20;11.48;;;;;;;10.51;88.35;100832.44;5011307;28;20053;-61
2021/10/11 03:55:42;;;;;;;17.98;10.75;;;;;;;10.50;88.06;100832.56;5010987;28;20080;-62
2021/10/11 03:58:08;;;;;;;20.98;10.27;;;;;;;10.51;87.39;100829.75;5011034;28;20025;-64
2021/10/11 04:00:33;;;;;;;16.10;10.60;;;;;;;10.49;85.00;100834.41;5009655;28;20397;-64
2021/10/11 04:03:02;;;;;;;17.63;10.30;;;;;;;10.47;83.59;100832.81;5011198;28;20072;-63
2021/10/11 04:05:28;;;;;;;21.40;11.07;;;;;;;10.47;84.64;100822.06;5004830;28;20038;-62
2021/10/11 04:07:55;;;;;;;18.27;10.00;;;;;;;10.44;85.92;100817.81;4991718;28;20049;-62
2021/10/11 04:10:27;;;;;;;18.67;10.55;;;;;;;10.46;88.12;100815.88;5001412;28;20030;-63
2021/10/11 04:12:56;;;;;;;15.57;9.45;;;;;;;10.47;88.89;100820.25;4998665;28;20081;-62
2021/10/11 04:15:22;;;;;;;20.20;10.05;;;;;;;10.46;88.19;100817.69;4990964;28;20396;-62
2021/10/11 04:17:48;;;;;;;20.33;10.20;;;;;;;10.47;88.48;100822.94;4991618;28;20034;-62
2021/10/11 04:20:14;;;;;;;18.25;10.40;;;;;;;10.46;86.91;100815.88;4988342;28;20084;-62
2021/10/11 04:22:40;;;;;;;16.05;9.25;;;;;;;10.46;86.66;100815.00;4991574;28;20472;-63
2021/10/11 04:25:06;;;;;;;18.13;10.02;;;;;;;10.45;86.78;100808.78;4990640;28;20026;-63
2021/10/11 04:27:32;;;;;;;14.80;9.68;;;;;;;10.45;87.53;100814.16;4989858;28;20520;-63
2021/10/11 04:29:57;;;;;;;15.90;9.43;;;;;;;10.44;87.02;100812.44;4985242;28;21064;-63
2021/10/11 04:32:23;;;;;;;16.50;9.55;;;;;;;10.43;85.97;100810.75;4988301;28;20019;-63
2021/10/11 04:34:48;;;;;;;15.02;9.25;;;;;;;10.47;85.46;100816.72;4990843;28;20143;-63
2021/10/11 04:37:14;;;;;;;17.95;10.23;;;;;;;10.44;84.90;100809.78;4990572;28;20022;-62
2021/10/11 04:39:39;;;;;;;17.48;10.00;;;;;;;10.44;84.46;100806.22;4990134;28;20037;-62
2021/10/11 04:42:05;;;;;;;18.95;9.90;;;;;;;10.42;86.58;100814.38;4989662;28;20049;-62
2021/10/11 04:44:30;;;;;;;16.77;10.00;;;;;;;10.37;88.30;100796.97;4990169;28;20026;-62
2021/10/11 04:46:55;;;;;;;18.48;10.52;;;;;;;10.38;87.94;100817.47;4990414;28;20068;-62
2021/10/11 04:49:21;;;;;;;23.52;10.38;;;;;;;10.38;88.86;100806.75;4989962;28;20018;-63
2021/10/11 04:51:46;;;;;;;15.70;8.90;;;;;;;10.38;89.50;100806.75;4990248;28;20395;-62
2021/10/11 04:54:14;;;;;;;15.98;9.65;;;;;;;10.39;89.10;100803.06;5005111;28;20031;-62
2021/10/11 04:56:40;;;;;;;18.63;10.43;;;;;;;10.37;88.08;100800.50;4988884;28;20050;-62
2021/10/11 04:59:05;;;;;;;17.15;10.45;;;;;;;10.39;87.24;100811.97;4989675;28;20130;-62
2021/10/11 05:01:31;;;;;;;14.40;9.60;;;;;;;10.32;86.79;100791.97;4990530;28;20073;-62
2021/10/11 05:03:56;;;;;;;15.88;8.57;;;;;;;10.39;85.79;100800.41;4990754;28;20026;-63
2021/10/11 05:06:22;;;;;;;16.10;9.95;;;;;;;10.39;85.26;100809.31;4988993;28;20066;-61
2021/10/11 05:08:47;;;;;;;17.63;10.88;;;;;;;10.38;85.58;100807.56;4990291;28;20071;-62
2021/10/11 05:11:12;;;;;;;15.75;9.00;;;;;;;10.37;84.83;100797.84;5000702;28;20519;-61
2021/10/11 05:13:38;;;;;;;16.67;9.27;;;;;;;10.36;85.33;100803.31;5009730;28;20187;-60
2021/10/11 05:16:10;;;;;;;19.83;10.32;;;;;;;10.44;84.74;100808.91;5010355;28;20029;-61
2021/10/11 05:18:35;;;;;;;18.30;10.15;;;;;;;10.39;84.56;100803.94;5006487;28;20033;-62
2021/10/11 05:21:01;;;;;;;13.90;8.35;;;;;;;10.39;84.33;100811.97;5010374;28;20472;-62
2021/10/11 05:23:26;;;;;;;17.63;10.20;;;;;;;10.38;83.86;100804.88;5008784;28;20042;-62
2021/10/11 05:25:51;;;;;;;17.17;9.55;;;;;;;10.38;83.55;100802.22;5009307;28;20075;-62
2021/10/11 05:28:17;;;;;;;18.02;9.82;;;;;;;10.38;83.22;100804.88;4990389;28;20034;-63
2021/10/11 05:30:43;;;;;;;16.50;9.18;;;;;;;10.37;83.63;100805.00;4990594;28;20077;-63
2021/10/11 05:33:09;;;;;;;15.88;9.75;;;;;;;10.39;83.96;100801.25;4990341;28;20038;-63
2021/10/11 05:35:36;;;;;;;17.42;9.60;;;;;;;10.42;83.92;100805.50;4994410;28;20037;-64
2021/10/11 05:38:04;;;;;;;17.23;10.77;;;;;;;10.41;83.57;100806.47;4990290;28;20027;-64
2021/10/11 05:40:30;;;;;;;22.10;12.10;;;;;;;10.44;83.46;100809.78;4990496;28;20030;-63
2021/10/11 05:42:56;;;;;;;22.05;12.93;;;;;;;10.42;84.62;100803.66;4990647;28;20380;-64
2021/10/11 05:45:22;;;;;;;23.38;13.18;;;;;;;10.42;85.46;100802.84;4989674;28;20037;-64
2021/10/11 05:47:47;;;;;;;27.80;12.90;;;;;;;10.50;85.38;100813.78;4990619;28;20018;-64
2021/10/11 05:50:13;;;;;;;23.60;11.70;;;;;;;10.51;82.77;100808.31;4991481;28;20073;-64
2021/10/11 05:52:38;;;;;;;22.05;11.43;;;;;;;10.55;81.47;100815.13;5006759;28;20026;-62
2021/10/11 05:55:05;;;;;;;21.33;11.18;;;;;;;10.53;80.84;100811.72;5008986;28;20025;-62
2021/10/11 05:57:32;;;;;;;19.42;10.57;;;;;;;10.56;79.19;100822.22;5009505;28;20549;-62
2021/10/11 05:59:58;;;;;;;17.02;10.23;;;;;;;10.61;78.78;100828.03;4987896;28;20161;-62
2021/10/11 06:02:24;;;;;;;22.85;11.25;;;;;;;10.62;78.22;100827.09;4988319;28;20486;-62
2021/10/11 06:04:49;;;;;;;21.60;10.80;;;;;;;10.65;78.81;100828.66;4988180;28;20057;-62
2021/10/11 06:07:15;;;;;;;18.50;10.60;;;;;;;10.61;78.67;100819.16;4987895;28;20022;-62
2021/10/11 06:09:41;;;;;;;16.77;10.32;;;;;;;10.69;78.73;100839.03;4988892;28;20083;-61
2021/10/11 06:12:06;;;;;;;17.88;10.95;;;;;;;10.58;79.00;100809.50;4988688;28;20026;-62
2021/10/11 06:14:32;;;;;;;19.15;11.52;;;;;;;10.72;78.12;100833.44;4989221;28;20034;-62
2021/10/11 06:16:57;;;;;;;21.25;11.13;;;;;;;10.77;76.81;100841.13;4989099;28;20030;-62
2021/10/11 06:19:22;;;;;;;19.48;11.15;;;;;;;10.78;76.67;100837.44;4989301;28;20160;-62
2021/10/11 06:21:48;;;;;;;22.90;11.70;;;;;;;10.82;75.99;100845.13;4987682;28;20027;-63
2021/10/11 06:24:14;;;;;;;17.85;10.70;;;;;;;10.77;75.89;100838.44;4986172;28;20022;-63
2021/10/11 06:26:40;;;;;;;20.77;10.20;;;;;;;10.77;77.83;100828.53;4986062;28;20050;-63
2021/10/11 06:29:06;;;;;;;17.83;10.40;;;;;;;10.87;78.23;100848.28;4988731;28;20501;-62
2021/10/11 06:31:31;;;;;;;18.50;9.38;;;;;;;10.90;77.38;100847.19;4989058;28;20102;-62
2021/10/11 06:33:57;;;;;;;20.20;9.45;;;;;;;10.88;76.27;100833.03;4989428;28;20041;-62
2021/10/11 06:36:23;;;;;;;16.90;9.75;;;;;;;10.99;75.86;100843.75;4988796;28;20558;-62
2021/10/11 06:38:48;;;;;;;18.48;9.93;;;;;;;10.98;75.99;100848.28;4988821;28;20519;-62
2021/10/11 06:41:14;;;;;;;17.50;9.18;;;;;;;11.03;75.79;100848.75;4988756;28;20030;-63
2021/10/11 06:43:40;;;;;;;14.65;9.05;;;;;;;10.95;75.13;100831.56;4981966;28;20411;-62
2021/10/11 06:46:05;;;;;;;17.95;9.80;;;;;;;11.05;74.42;100841.44;4986353;28;20030;-62
2021/10/11 06:48:30;;;;;;;15.88;9.68;;;;;;;11.07;74.20;100842.13;4989210;28;20468;-62
2021/10/11 06:50:56;;;;;;;22.55;9.43;;;;;;;11.00;72.96;100822.16;4987562;28;20026;-62
2021/10/11 06:53:21;;;;;;;17.38;9.95;;;;;;;11.13;73.19;100841.63;4988785;28;20037;-62
2021/10/11 06:55:47;;;;;;;18.60;9.48;;;;;;;11.17;72.51;100839.56;4988973;28;20030;-62
2021/10/11 06:58:12;;;;;;;16.25;9.60;;;;;;;11.17;71.82;100836.88;4988423;28;20477;-62
2021/10/11 07:00:38;;;;;;;19.73;9.20;;;;;;;11.17;71.65;100828.84;4988711;28;20468;-61
2021/10/11 07:03:05;;;;;;;14.07;8.88;;;;;;;11.22;71.49;100838.22;4988806;28;20030;-62
2021/10/11 07:05:32;;;;;;;15.40;9.60;;;;;;;11.19;70.87;100822.34;4988915;28;20504;-62
2021/10/11 07:07:59;;;;;;;16.38;9.18;;;;;;;11.31;70.28;100831.22;5006569;28;20029;-62
2021/10/11 07:10:24;;;;;;;16.25;9.27;;;;;;;11.36;69.92;100843.28;5001079;28;20064;-62
2021/10/11 07:12:50;;;;;;;17.88;9.20;;;;;;;11.42;70.19;100840.09;5008141;28;20030;-62
2021/10/11 07:15:15;;;;;;;17.05;10.10;;;;;;;11.47;69.76;100837.91;5007650;28;20472;-62
2021/10/11 07:17:41;;;;;;;15.18;9.40;;;;;;;11.54;68.41;100836.41;5008235;28;20038;-63
2021/10/11 07:20:07;;;;;;;19.48;9.52;;;;;;;11.50;68.05;100817.97;5011022;28;20033;-63
2021/10/11 07:22:32;;;;;;;16.08;8.82;;;;;;;11.66;66.95;100831.00;5011711;28;20080;-62
2021/10/11 07:24:58;;;;;;;14.95;9.18;;;;;;;11.69;66.15;100836.13;5011741;28;20317;-62
2021/10/11 07:27:23;;;;;;;16.65;8.57;;;;;;;11.73;66.21;100838.41;5009978;28;20085;-62
2021/10/11 07:29:49;;;;;;;14.88;9.07;;;;;;;11.80;67.23;100849.53;5011389;28;20060;-62
2021/10/11 07:32:14;;;;;;;19.23;8.95;;;;;;;11.84;67.12;100840.22;5010403;28;20022;-63
2021/10/11 07:34:40;;;;;;;16.58;9.20;;;;;;;11.88;66.09;100839.81;5011314;28;20479;-63
2021/10/11 07:37:05;;;;;;;20.65;9.18;;;;;;;11.89;64.94;100835.28;5011478;28;20083;-63
2021/10/11 07:39:32;;;;;;;18.85;9.73;;;;;;;11.96;64.62;100850.75;5011455;28;20030;-62
2021/10/11 07:41:59;;;;;;;17.90;8.93;;;;;;;11.98;65.19;100851.50;5010262;28;20034;-62
2021/10/11 07:44:25;;;;;;;16.00;9.63;;;;;;;12.00;65.47;100837.91;5010934;28;20022;-62
2021/10/11 07:46:54;;;;;;;16.60;8.75;;;;;;;12.04;64.61;100836.66;5011427;28;20036;-62
2021/10/11 07:49:21;;;;;;;14.70;8.45;;;;;;;11.99;63.63;100828.16;5011746;28;20018;-61
2021/10/11 07:51:47;;;;;;;16.27;8.93;;;;;;;12.10;63.66;100836.16;5011366;28;20064;-62
2021/10/11 07:54:16;;;;;;;17.83;8.95;;;;;;;12.12;63.47;100840.41;5011524;28;20083;-62
2021/10/11 07:56:43;;;;;;;16.13;9.45;;;;;;;12.18;62.72;100844.38;4996233;28;20706;-62
2021/10/11 07:59:08;;;;;;;18.83;9.02;;;;;;;12.17;62.38;100834.63;4990964;28;20066;-62
2021/10/11 08:01:35;;;;;;;15.30;9.63;;;;;;;12.19;62.70;100835.34;4992256;28;20080;-62
2021/10/11 08:04:01;;;;;;;18.73;8.55;;;;;;;12.22;61.83;100835.09;5009479;28;20065;-61
2021/10/11 08:06:27;;;;;;;15.18;8.77;;;;;;;12.23;61.00;100832.28;5010727;28;20057;-61
2021/10/11 08:08:52;;;;;;;14.55;9.25;;;;;;;12.23;61.65;100826.91;4997387;28;20164;-61
2021/10/11 08:11:18;;;;;;;15.10;8.10;;;;;;;12.31;61.73;100834.28;4991313;28;20034;-61
2021/10/11 08:13:43;;;;;;;15.25;8.63;;;;;;;12.35;61.48;100833.06;4990837;28;20030;-62
2021/10/11 08:16:09;;;;;;;16.85;8.63;;;;;;;12.36;61.24;100832.91;4991442;28;20030;-62
2021/10/11 08:18:35;;;;;;;14.00;8.27;;;;;;;12.43;61.35;100836.78;4991638;28;20037;-60
2021/10/11 08:21:00;;;;;;;14.73;8.88;;;;;;;12.42;60.88;100823.44;4991054;28;20026;-62
2021/10/11 08:23:26;;;;;;;17.67;8.30;;;;;;;12.49;61.55;100833.56;4990858;28;20057;-61
2021/10/11 08:25:51;;;;;;;16.73;9.02;;;;;;;12.50;60.30;100831.69;4991114;28;20030;-62
2021/10/11 08:28:17;;;;;;;14.10;8.43;;;;;;;12.53;59.48;100842.19;4990315;28;20049;-62
2021/10/11 08:30:43;;;;;;;13.13;8.75;;;;;;;12.58;59.08;100831.88;4991130;28;20073;-62
2021/10/11 08:33:10;;;;;;;14.82;8.40;;;;;;;12.59;60.50;100830.88;4996655;28;20037;-61
2021/10/11 08:35:35;;;;;;;15.02;8.32;;;;;;;12.63;58.44;100829.63;4990919;28;20030;-62
2021/10/11 08:38:01;;;;;;;22.23;8.63;;;;;;;12.64;57.89;100828.66;4990903;28;20032;-62
2021/10/11 08:40:27;;;;;;;25.13;8.48;;;;;;;12.65;59.08;100828.53;4988320;28;20042;-63
2021/10/11 08:42:52;;;;;;;17.52;8.80;;;;;;;12.69;58.48;100827.25;5003567;28;20018;-63
2021/10/11 08:45:18;;;;;;;14.40;8.18;;;;;;;12.70;59.41;100812.81;4988859;28;20112;-63
2021/10/11 08:47:44;;;;;;;16.33;8.15;;;;;;;12.73;58.74;100815.22;4990437;28;20124;-62
2021/10/11 08:50:15;;;;;;;14.15;8.27;;;;;;;12.86;58.59;100820.34;4990520;28;20030;-62
2021/10/11 08:52:40;;;;;;;15.27;8.73;;;;;;;12.94;58.28;100821.41;4987908;28;20027;-62
2021/10/11 08:55:06;;;;;;;15.15;7.90;;;;;;;13.01;58.10;100824.41;4990367;28;20487;-63
2021/10/11 08:57:33;;;;;;;17.80;8.13;;;;;;;13.08;57.13;100828.25;4990340;28;20026;-63
2021/10/11 09:00:16;;;;;;;11.95;7.47;;;;;;;13.05;56.97;100809.69;4989937;28;20129;-64
2021/10/11 09:02:53;;;;;;;11.95;7.20;;;;;;;13.20;56.76;100828.03;5008456;28;20017;-64
2021/10/11 09:05:28;;;;;;;12.18;7.68;;;;;;;13.23;56.62;100825.03;5009827;28;20033;-63
2021/10/11 09:07:59;;;;;;;14.48;7.88;;;;;;;13.32;56.86;100817.97;5009525;28;20033;-63
2021/10/11 09:10:25;;;;;;;14.65;7.63;;;;;;;13.37;56.35;100813.00;5009578;28;20022;-63
2021/10/11 09:12:50;;;;;;;13.65;7.13;;;;;;;13.36;56.25;100801.38;5024564;28;20057;-63
2021/10/11 09:15:16;;;;;;;13.13;7.10;;;;;;;13.46;55.29;100798.69;5009649;28;20369;-63
2021/10/11 09:17:49;;;;;;;13.38;7.75;;;;;;;13.52;55.65;100798.94;5009718;28;20018;-63
2021/10/11 09:20:21;;;;;;;14.97;7.83;;;;;;;13.55;55.52;100805.94;4997624;28;20026;-63
2021/10/11 09:22:50;;;;;;;13.57;7.28;;;;;;;13.63;55.29;100801.53;4989994;28;20476;-63
2021/10/11 09:25:17;;;;;;;15.90;7.97;;;;;;;13.66;55.63;100790.47;4989518;28;20140;-62
2021/10/11 09:27:53;;;;;;;15.15;8.15;;;;;;;13.70;55.18;100796.41;4989620;28;20046;-62
2021/10/11 09:30:34;;;;;;;12.57;7.50;;;;;;;13.77;54.78;100795.69;4989455;28;20026;-62
2021/10/11 09:33:06;;;;;;;17.52;7.90;;;;;;;13.80;54.65;100791.03;4989545;28;20053;-62
2021/10/11 09:35:33;;;;;;;12.30;7.55;;;;;;;13.84;55.02;100790.59;4989474;28;20053;-63
2021/10/11 09:37:59;;;;;;;13.45;8.38;;;;;;;13.88;54.20;100794.69;5004746;28;20022;-64
2021/10/11 09:40:25;;;;;;;13.43;8.00;;;;;;;13.91;54.54;100794.41;5009357;28;20037;-62
2021/10/11 09:42:50;;;;;;;13.40;7.97;;;;;;;13.79;54.43;100773.97;4994570;28;20027;-62
2021/10/11 09:45:23;;;;;;;11.68;7.13;;;;;;;13.85;55.19;100776.09;5005166;28;20126;-62
2021/10/11 09:47:49;;;;;;;13.50;7.07;;;;;;;13.87;55.10;100771.44;5007615;28;20034;-63
2021/10/11 09:50:17;;;;;;;13.90;7.95;;;;;;;13.98;55.11;100783.88;5008946;28;20036;-62
2021/10/11 09:52:43;;;;;;;11.23;6.97;;;;;;;13.95;54.51;100767.97;5009234;28;20037;-62
2021/10/11 09:55:11;;;;;;;16.85;8.10;;;;;;;14.03;54.83;100778.91;5009373;28;20464;-63
2021/10/11 09:57:37;;;;;;;12.93;7.38;;;;;;;14.06;55.52;100784.84;5008749;28;20026;-63
2021/10/11 10:00:10;;;;;;;11.80;7.25;;;;;;;14.08;55.19;100779.31;5008642;28;20029;-62
2021/10/11 10:02:38;;;;;;;13.88;6.95;;;;;;;14.10;55.07;100780.88;5008995;28;20430;-63
2021/10/11 10:05:08;;;;;;;11.48;7.57;;;;;;;14.19;54.44;100787.25;5008621;28;20207;-64
2021/10/11 10:07:36;;;;;;;11.88;7.40;;;;;;;14.22;53.45;100782.38;5008685;28;20026;-64
2021/10/11 10:10:05;;;;;;;14.88;6.72;;;;;;;14.26;53.66;100774.91;5008753;28;20388;-64
2021/10/11 10:12:42;;;;;;;10.43;7.07;;;;;;;14.25;53.93;100771.34;5007502;28;20050;-65
2021/10/11 10:15:08;;;;;;;11.02;6.80;;;;;;;14.33;54.14;100771.47;5008549;28;20531;-66
2021/10/11 10:17:35;;;;;;;14.38;7.53;;;;;;;14.38;54.14;100766.47;5008618;28;20083;-64
2021/10/11 10:20:12;;;;;;;14.43;7.88;;;;;;;14.47;54.44;100770.97;5023872;28;20373;-65
2021/10/11 10:22:42;;;;;;;12.35;6.90;;;;;;;14.50;54.53;100770.69;5008482;28;20026;-65
2021/10/11 10:25:09;;;;;;;13.90;7.55;;;;;;;14.49;54.34;100750.09;5007033;28;20040;-65
2021/10/11 10:27:38;;;;;;;12.60;6.65;;;;;;;14.60;53.70;100759.84;5008542;28;20054;-64
2021/10/11 10:30:23;;;;;;;10.38;6.22;;;;;;;14.65;53.23;100761.09;5008368;28;20514;-64
2021/10/11 10:32:55;;;;;;;11.85;6.53;;;;;;;14.69;53.23;100751.69;5008547;28;20021;-63
2021/10/11 10:35:21;;;;;;;12.75;7.18;;;;;;;14.71;52.73;100747.00;5001693;28;20038;-64
2021/10/11 10:37:46;;;;;;;12.32;6.78;;;;;;;14.76;52.97;100749.22;4988788;28;20036;-62
2021/10/11 10:40:15;;;;;;;12.70;6.65;;;;;;;14.78;53.08;100737.31;5002991;28;20117;-63
2021/10/11 10:42:41;;;;;;;14.38;7.13;;;;;;;14.80;52.46;100740.69;4990714;28;20074;-63
2021/10/11 10:45:34;;;;;;;14.60;6.55;;;;;;;14.80;52.75;100724.47;4988810;28;20022;-62
2021/10/11 10:48:00;;;;;;;14.27;7.10;;;;;;;14.87;52.75;100727.44;4987235;28;20475;-63
2021/10/11 10:50:28;;;;;;;12.65;6.65;;;;;;;14.89;52.10;100722.72;4988942;28;20126;-63
2021/10/11 10:52:56;;;;;;;14.18;6.57;;;;;;;14.94;51.60;100734.78;4988713;28;20453;-63
2021/10/11 10:55:23;;;;;;;11.48;7.43;;;;;;;14.97;51.65;100736.31;4992277;28;20101;-64
2021/10/11 10:57:54;;;;;;;11.00;6.68;;;;;;;14.95;51.58;100739.19;4992532;28;20431;-63
2021/10/11 11:00:20;;;;;;;9.35;6.28;;;;;;;14.98;51.98;100725.38;4992167;28;20392;-64
2021/10/11 11:02:51;;;;;;;10.77;6.53;;;;;;;15.00;52.12;100727.91;4993001;28;20388;-64
2021/10/11 11:05:19;;;;;;;10.65;6.50;;;;;;;14.95;52.29;100711.31;5007534;28;20030;-64
2021/10/11 11:07:47;;;;;;;9.68;6.30;;;;;;;15.02;52.12;100713.25;4990080;28;20038;-63
2021/10/11 11:10:27;;;;;;;9.18;6.28;;;;;;;15.02;51.54;100713.25;4994854;28;20361;-63